Bobo Dioulasso Airport Bobo Dioulasso BF
ICAO: DFOO
IATA: BOY
Category: Medium
Scheduled Services: Yes

Elevation: 1511 ft
TransAlt. 4300 ft.

Airport Communications:
AG VOICE RDO:667.3
TWR:119.7

DFOO Zoom In..

If you have problems with the map follow the link
https://www.worldairports.se/pages/airport.php?
ICAO=DFOO

Runways:

(A) RW 06 length 10827 ft width 148 ft
ILS 109.70 / hdg 57

(B) RW 24 length 10827 ft width 148 ft
---- / hdg 237

Location; DFOO
Day. 21 / Time. 11.00 Zulu
* QNH: 1014
* Temperature: 31° c. 87.8°f.
* Wind from: 130° Speed 06 kn.
Dewpoint: 11° c.
Visibility: 4000 m.
No significant clouds are observed below 5000 ft.
Conditions: Widespread dust.

DFOO 211100Z 13006KT 080V160 4000 DU NSC 31/11 Q1014


Wind From 130°
Speed 06 kn.

 
 
jpsmedia worldairports.se 2020   terms of use